sensor_id;sensor_type;location;lat;lon;timestamp;pressure;altitude;pressure_sealevel;temperature;humidity
22440;BME280;11387;51.612;7.210;2023-07-29T00:01:00;99905.91;;;17.48;100.00
22440;BME280;11387;51.612;7.210;2023-07-29T00:03:29;99915.97;;;17.56;100.00
22440;BME280;11387;51.612;7.210;2023-07-29T00:05:59;99910.81;;;17.55;100.00
22440;BME280;11387;51.612;7.210;2023-07-29T00:08:28;99914.38;;;17.55;100.00
22440;BME280;11387;51.612;7.210;2023-07-29T00:10:56;99915.81;;;17.49;100.00
22440;BME280;11387;51.612;7.210;2023-07-29T00:13:25;99915.09;;;17.52;100.00
22440;BME280;11387;51.612;7.210;2023-07-29T00:15:55;99910.72;;;17.51;100.00
22440;BME280;11387;51.612;7.210;2023-07-29T00:18:24;99908.41;;;17.53;100.00
22440;BME280;11387;51.612;7.210;2023-07-29T00:20:52;99915.53;;;17.54;100.00
22440;BME280;11387;51.612;7.210;2023-07-29T00:23:21;99911.59;;;17.55;100.00
22440;BME280;11387;51.612;7.210;2023-07-29T00:25:50;99915.81;;;17.49;100.00
22440;BME280;11387;51.612;7.210;2023-07-29T00:28:18;99907.97;;;17.51;100.00
22440;BME280;11387;51.612;7.210;2023-07-29T00:30:50;99906.34;;;17.50;100.00
22440;BME280;11387;51.612;7.210;2023-07-29T00:33:20;99912.50;;;17.59;100.00
22440;BME280;11387;51.612;7.210;2023-07-29T00:35:49;99920.06;;;17.62;100.00
22440;BME280;11387;51.612;7.210;2023-07-29T00:38:17;99912.69;;;17.66;100.00
22440;BME280;11387;51.612;7.210;2023-07-29T00:40:46;99908.63;;;17.64;100.00
22440;BME280;11387;51.612;7.210;2023-07-29T00:43:15;99908.31;;;17.65;100.00
22440;BME280;11387;51.612;7.210;2023-07-29T00:45:44;99901.44;;;17.59;100.00
22440;BME280;11387;51.612;7.210;2023-07-29T00:48:13;99900.00;;;17.65;100.00
22440;BME280;11387;51.612;7.210;2023-07-29T00:50:44;99894.38;;;17.62;100.00
22440;BME280;11387;51.612;7.210;2023-07-29T00:53:12;99896.97;;;17.55;100.00
22440;BME280;11387;51.612;7.210;2023-07-29T00:55:41;99886.19;;;17.49;100.00
22440;BME280;11387;51.612;7.210;2023-07-29T00:58:10;99892.44;;;17.46;100.00
22440;BME280;11387;51.612;7.210;2023-07-29T01:00:38;99893.97;;;17.44;100.00
22440;BME280;11387;51.612;7.210;2023-07-29T01:03:08;99884.50;;;17.45;100.00
22440;BME280;11387;51.612;7.210;2023-07-29T01:05:45;99880.66;;;17.49;100.00
22440;BME280;11387;51.612;7.210;2023-07-29T01:08:22;99874.56;;;17.40;100.00
22440;BME280;11387;51.612;7.210;2023-07-29T01:10:58;99877.25;;;17.37;100.00
22440;BME280;11387;51.612;7.210;2023-07-29T01:13:34;99874.50;;;17.37;100.00
22440;BME280;11387;51.612;7.210;2023-07-29T01:16:09;99881.28;;;17.24;100.00
22440;BME280;11387;51.612;7.210;2023-07-29T01:18:42;99872.84;;;17.16;100.00
22440;BME280;11387;51.612;7.210;2023-07-29T01:21:17;99870.00;;;17.13;100.00
22440;BME280;11387;51.612;7.210;2023-07-29T01:23:47;99870.38;;;17.11;100.00
22440;BME280;11387;51.612;7.210;2023-07-29T01:26:16;99868.91;;;17.17;100.00
22440;BME280;11387;51.612;7.210;2023-07-29T01:28:45;99878.97;;;17.26;100.00
22440;BME280;11387;51.612;7.210;2023-07-29T01:31:18;99878.84;;;17.38;100.00
22440;BME280;11387;51.612;7.210;2023-07-29T01:33:57;99875.06;;;17.46;100.00
22440;BME280;11387;51.612;7.210;2023-07-29T01:36:28;99873.88;;;17.47;100.00
22440;BME280;11387;51.612;7.210;2023-07-29T01:39:00;99876.22;;;17.45;100.00
22440;BME280;11387;51.612;7.210;2023-07-29T01:41:30;99873.59;;;17.52;100.00
22440;BME280;11387;51.612;7.210;2023-07-29T01:43:59;99881.97;;;17.56;100.00
22440;BME280;11387;51.612;7.210;2023-07-29T01:46:28;99874.50;;;17.56;100.00
22440;BME280;11387;51.612;7.210;2023-07-29T01:48:56;99867.00;;;17.57;100.00
22440;BME280;11387;51.612;7.210;2023-07-29T01:51:35;99857.16;;;17.59;100.00
22440;BME280;11387;51.612;7.210;2023-07-29T01:54:05;99864.31;;;17.60;100.00
22440;BME280;11387;51.612;7.210;2023-07-29T01:56:34;99856.81;;;17.61;100.00
22440;BME280;11387;51.612;7.210;2023-07-29T01:59:02;99845.38;;;17.62;100.00
22440;BME280;11387;51.612;7.210;2023-07-29T02:01:40;99844.88;;;17.57;100.00
22440;BME280;11387;51.612;7.210;2023-07-29T02:04:09;99847.56;;;17.53;100.00
22440;BME280;11387;51.612;7.210;2023-07-29T02:06:37;99845.94;;;17.52;100.00
22440;BME280;11387;51.612;7.210;2023-07-29T02:09:07;99844.50;;;17.58;100.00
22440;BME280;11387;51.612;7.210;2023-07-29T02:11:37;99838.09;;;17.54;100.00
22440;BME280;11387;51.612;7.210;2023-07-29T02:14:06;99840.84;;;17.54;100.00
22440;BME280;11387;51.612;7.210;2023-07-29T02:16:34;99832.56;;;17.54;100.00
22440;BME280;11387;51.612;7.210;2023-07-29T02:19:05;99834.16;;;17.55;100.00
22440;BME280;11387;51.612;7.210;2023-07-29T02:21:33;99836.28;;;17.62;100.00
22440;BME280;11387;51.612;7.210;2023-07-29T02:24:02;99835.84;;;17.60;100.00
22440;BME280;11387;51.612;7.210;2023-07-29T02:26:33;99834.41;;;17.66;100.00
22440;BME280;11387;51.612;7.210;2023-07-29T02:29:02;99829.69;;;17.66;100.00
22440;BME280;11387;51.612;7.210;2023-07-29T02:31:30;99820.03;;;17.60;100.00
22440;BME280;11387;51.612;7.210;2023-07-29T02:33:59;99810.06;;;17.56;100.00
22440;BME280;11387;51.612;7.210;2023-07-29T02:36:27;99820.78;;;17.57;100.00
22440;BME280;11387;51.612;7.210;2023-07-29T02:38:56;99822.88;;;17.64;100.00
22440;BME280;11387;51.612;7.210;2023-07-29T02:41:25;99817.81;;;17.66;100.00
22440;BME280;11387;51.612;7.210;2023-07-29T02:43:55;99817.66;;;17.59;100.00
22440;BME280;11387;51.612;7.210;2023-07-29T02:46:24;99810.44;;;17.54;100.00
22440;BME280;11387;51.612;7.210;2023-07-29T02:48:51;99812.03;;;17.55;100.00
22440;BME280;11387;51.612;7.210;2023-07-29T02:51:20;99812.41;;;17.54;100.00
22440;BME280;11387;51.612;7.210;2023-07-29T02:53:49;99823.91;;;17.56;100.00
22440;BME280;11387;51.612;7.210;2023-07-29T02:56:31;99824.28;;;17.73;100.00
22440;BME280;11387;51.612;7.210;2023-07-29T02:59:02;99830.56;;;17.70;100.00
22440;BME280;11387;51.612;7.210;2023-07-29T03:01:30;99822.75;;;17.76;100.00
22440;BME280;11387;51.612;7.210;2023-07-29T03:03:59;99821.94;;;17.75;100.00
22440;BME280;11387;51.612;7.210;2023-07-29T03:06:28;99818.38;;;17.75;100.00
22440;BME280;11387;51.612;7.210;2023-07-29T03:08:56;99823.50;;;17.73;100.00
22440;BME280;11387;51.612;7.210;2023-07-29T03:11:25;99815.94;;;17.70;100.00
22440;BME280;11387;51.612;7.210;2023-07-29T03:13:54;99825.75;;;17.67;100.00
22440;BME280;11387;51.612;7.210;2023-07-29T03:16:24;99834.84;;;17.68;100.00
22440;BME280;11387;51.612;7.210;2023-07-29T03:18:53;99836.81;;;17.67;100.00
22440;BME280;11387;51.612;7.210;2023-07-29T03:21:21;99839.59;;;17.67;100.00
22440;BME280;11387;51.612;7.210;2023-07-29T03:23:50;99840.47;;;17.71;100.00
22440;BME280;11387;51.612;7.210;2023-07-29T03:26:19;99840.03;;;17.69;100.00
22440;BME280;11387;51.612;7.210;2023-07-29T03:28:47;99841.63;;;17.70;100.00
22440;BME280;11387;51.612;7.210;2023-07-29T03:31:16;99840.03;;;17.69;100.00
22440;BME280;11387;51.612;7.210;2023-07-29T03:33:46;99839.94;;;17.66;100.00
22440;BME280;11387;51.612;7.210;2023-07-29T03:36:15;99831.19;;;17.64;100.00
22440;BME280;11387;51.612;7.210;2023-07-29T03:38:43;99828.09;;;17.65;100.00
22440;BME280;11387;51.612;7.210;2023-07-29T03:41:12;99832.72;;;17.61;100.00
22440;BME280;11387;51.612;7.210;2023-07-29T03:43:41;99833.25;;;17.67;100.00
22440;BME280;11387;51.612;7.210;2023-07-29T03:46:09;99813.44;;;17.65;100.00
22440;BME280;11387;51.612;7.210;2023-07-29T03:48:39;99825.66;;;17.64;100.00
22440;BME280;11387;51.612;7.210;2023-07-29T03:51:08;99828.78;;;17.62;100.00
22440;BME280;11387;51.612;7.210;2023-07-29T03:53:37;99821.56;;;17.58;100.00
22440;BME280;11387;51.612;7.210;2023-07-29T03:56:05;99823.19;;;17.59;100.00
22440;BME280;11387;51.612;7.210;2023-07-29T03:58:35;99823.63;;;17.61;100.00
22440;BME280;11387;51.612;7.210;2023-07-29T04:01:03;99824.16;;;17.66;100.00
22440;BME280;11387;51.612;7.210;2023-07-29T04:03:33;99821.03;;;17.68;100.00
22440;BME280;11387;51.612;7.210;2023-07-29T04:06:23;99813.09;;;17.66;100.00
22440;BME280;11387;51.612;7.210;2023-07-29T04:08:52;99810.59;;;17.61;100.00
22440;BME280;11387;51.612;7.210;2023-07-29T04:11:20;99806.22;;;17.60;100.00
22440;BME280;11387;51.612;7.210;2023-07-29T04:13:49;99812.47;;;17.57;100.00
22440;BME280;11387;51.612;7.210;2023-07-29T04:16:17;99802.81;;;17.67;100.00
22440;BME280;11387;51.612;7.210;2023-07-29T04:18:46;99796.75;;;17.61;100.00
22440;BME280;11387;51.612;7.210;2023-07-29T04:21:15;99801.84;;;17.59;100.00
22440;BME280;11387;51.612;7.210;2023-07-29T04:23:45;99801.84;;;17.59;100.00
22440;BME280;11387;51.612;7.210;2023-07-29T04:26:14;99814.50;;;17.60;100.00
22440;BME280;11387;51.612;7.210;2023-07-29T04:28:42;99807.00;;;17.61;100.00
22440;BME280;11387;51.612;7.210;2023-07-29T04:31:11;99809.84;;;17.64;100.00
22440;BME280;11387;51.612;7.210;2023-07-29T04:33:39;99807.56;;;17.66;100.00
22440;BME280;11387;51.612;7.210;2023-07-29T04:36:08;99798.09;;;17.67;100.00
22440;BME280;11387;51.612;7.210;2023-07-29T04:38:37;99787.81;;;17.68;100.00
22440;BME280;11387;51.612;7.210;2023-07-29T04:41:08;99783.97;;;17.72;100.00
22440;BME280;11387;51.612;7.210;2023-07-29T04:43:36;99799.81;;;17.75;100.00
22440;BME280;11387;51.612;7.210;2023-07-29T04:46:06;99805.34;;;17.75;100.00
22440;BME280;11387;51.612;7.210;2023-07-29T04:48:35;99820.47;;;17.81;100.00
22440;BME280;11387;51.612;7.210;2023-07-29T04:51:04;99825.28;;;17.84;100.00
22440;BME280;11387;51.612;7.210;2023-07-29T04:53:32;99823.53;;;17.76;100.00
22440;BME280;11387;51.612;7.210;2023-07-29T04:56:02;99838.97;;;17.77;100.00
22440;BME280;11387;51.612;7.210;2023-07-29T04:58:32;99834.25;;;17.78;100.00
22440;BME280;11387;51.612;7.210;2023-07-29T05:01:02;99832.28;;;17.78;100.00
22440;BME280;11387;51.612;7.210;2023-07-29T05:03:31;99832.16;;;17.71;100.00
22440;BME280;11387;51.612;7.210;2023-07-29T05:06:00;99839.28;;;17.72;100.00
22440;BME280;11387;51.612;7.210;2023-07-29T05:08:28;99841.31;;;17.75;100.00
22440;BME280;11387;51.612;7.210;2023-07-29T05:10:57;99848.75;;;17.71;100.00
22440;BME280;11387;51.612;7.210;2023-07-29T05:13:26;99848.31;;;17.69;100.00
22440;BME280;11387;51.612;7.210;2023-07-29T05:15:56;99852.06;;;17.61;100.00
22440;BME280;11387;51.612;7.210;2023-07-29T05:18:24;99849.59;;;17.56;100.00
22440;BME280;11387;51.612;7.210;2023-07-29T05:20:53;99845.00;;;17.44;100.00
22440;BME280;11387;51.612;7.210;2023-07-29T05:23:21;99827.75;;;17.51;100.00
22440;BME280;11387;51.612;7.210;2023-07-29T05:25:50;99814.38;;;17.53;100.00
22440;BME280;11387;51.612;7.210;2023-07-29T05:28:19;99805.97;;;17.65;100.00
22440;BME280;11387;51.612;7.210;2023-07-29T05:30:47;99806.38;;;17.67;100.00
22440;BME280;11387;51.612;7.210;2023-07-29T05:33:17;99802.91;;;17.70;100.00
22440;BME280;11387;51.612;7.210;2023-07-29T05:35:46;99793.56;;;17.59;100.00
22440;BME280;11387;51.612;7.210;2023-07-29T05:38:15;99815.97;;;17.73;100.00
22440;BME280;11387;51.612;7.210;2023-07-29T05:40:43;99815.53;;;17.91;100.00
22440;BME280;11387;51.612;7.210;2023-07-29T05:43:12;99817.56;;;17.94;100.00
22440;BME280;11387;51.612;7.210;2023-07-29T05:45:41;99838.91;;;17.93;100.00
22440;BME280;11387;51.612;7.210;2023-07-29T05:48:10;99841.53;;;18.09;100.00
22440;BME280;11387;51.612;7.210;2023-07-29T05:50:41;99854.94;;;18.07;100.00
22440;BME280;11387;51.612;7.210;2023-07-29T05:53:09;99869.22;;;18.09;100.00
22440;BME280;11387;51.612;7.210;2023-07-29T05:55:38;99865.44;;;18.17;100.00
22440;BME280;11387;51.612;7.210;2023-07-29T05:58:07;99859.03;;;18.13;100.00
22440;BME280;11387;51.612;7.210;2023-07-29T06:01:02;99870.53;;;18.15;100.00
22440;BME280;11387;51.612;7.210;2023-07-29T06:03:31;99875.69;;;18.16;100.00
22440;BME280;11387;51.612;7.210;2023-07-29T06:06:01;99885.03;;;18.08;100.00
22440;BME280;11387;51.612;7.210;2023-07-29T06:08:30;99885.97;;;18.16;100.00
22440;BME280;11387;51.612;7.210;2023-07-29T06:11:01;99878.84;;;18.15;100.00
22440;BME280;11387;51.612;7.210;2023-07-29T06:13:31;99883.50;;;18.11;100.00
22440;BME280;11387;51.612;7.210;2023-07-29T06:16:00;99889.09;;;18.14;100.00
22440;BME280;11387;51.612;7.210;2023-07-29T06:18:28;99898.72;;;18.21;100.00
22440;BME280;11387;51.612;7.210;2023-07-29T06:20:58;99891.50;;;18.16;100.00
22440;BME280;11387;51.612;7.210;2023-07-29T06:23:28;99892.81;;;18.22;100.00
22440;BME280;11387;51.612;7.210;2023-07-29T06:25:56;99897.97;;;18.24;100.00
22440;BME280;11387;51.612;7.210;2023-07-29T06:28:25;99908.13;;;18.39;100.00
22440;BME280;11387;51.612;7.210;2023-07-29T06:30:53;99915.56;;;18.35;100.00
22440;BME280;11387;51.612;7.210;2023-07-29T06:33:22;99920.50;;;18.45;100.00
22440;BME280;11387;51.612;7.210;2023-07-29T06:35:51;99922.03;;;18.62;99.03
22440;BME280;11387;51.612;7.210;2023-07-29T06:38:19;99930.47;;;18.69;96.93
22440;BME280;11387;51.612;7.210;2023-07-29T06:40:50;99940.13;;;18.78;92.36
22440;BME280;11387;51.612;7.210;2023-07-29T06:43:19;99941.72;;;18.79;91.66
22440;BME280;11387;51.612;7.210;2023-07-29T06:45:48;99930.19;;;19.00;89.22
22440;BME280;11387;51.612;7.210;2023-07-29T06:48:17;99940.47;;;19.00;87.65
22440;BME280;11387;51.612;7.210;2023-07-29T06:50:48;99936.53;;;19.01;86.83
22440;BME280;11387;51.612;7.210;2023-07-29T06:53:18;99941.50;;;19.14;87.51
22440;BME280;11387;51.612;7.210;2023-07-29T06:55:47;99930.97;;;19.24;86.09
22440;BME280;11387;51.612;7.210;2023-07-29T06:58:17;99931.59;;;19.13;84.69
22440;BME280;11387;51.612;7.210;2023-07-29T07:00:46;99926.34;;;19.08;85.65
22440;BME280;11387;51.612;7.210;2023-07-29T07:03:14;99932.88;;;19.20;85.48
22440;BME280;11387;51.612;7.210;2023-07-29T07:05:43;99931.28;;;19.18;84.52
22440;BME280;11387;51.612;7.210;2023-07-29T07:08:12;99936.28;;;19.36;83.58
22440;BME280;11387;51.612;7.210;2023-07-29T07:10:41;99935.69;;;19.49;84.11
22440;BME280;11387;51.612;7.210;2023-07-29T07:13:10;99934.03;;;19.45;82.52
22440;BME280;11387;51.612;7.210;2023-07-29T07:15:40;99939.72;;;19.52;82.26
22440;BME280;11387;51.612;7.210;2023-07-29T07:18:09;99939.09;;;19.66;82.14
22440;BME280;11387;51.612;7.210;2023-07-29T07:20:37;99934.88;;;19.75;81.18
22440;BME280;11387;51.612;7.210;2023-07-29T07:23:06;99931.44;;;19.89;79.92
22440;BME280;11387;51.612;7.210;2023-07-29T07:25:38;99928.72;;;19.93;79.06
22440;BME280;11387;51.612;7.210;2023-07-29T07:28:07;99928.56;;;19.78;78.74
22440;BME280;11387;51.612;7.210;2023-07-29T07:30:40;99930.25;;;19.87;78.51
22440;BME280;11387;51.612;7.210;2023-07-29T07:33:09;99926.13;;;20.07;76.39
22440;BME280;11387;51.612;7.210;2023-07-29T07:35:38;99918.91;;;20.36;76.30
22440;BME280;11387;51.612;7.210;2023-07-29T07:38:06;99920.34;;;20.60;74.23
22440;BME280;11387;51.612;7.210;2023-07-29T07:40:37;99920.09;;;21.27;72.31
22440;BME280;11387;51.612;7.210;2023-07-29T07:43:05;99923.56;;;21.82;70.87
22440;BME280;11387;51.612;7.210;2023-07-29T07:45:34;99931.31;;;22.28;67.57
22440;BME280;11387;51.612;7.210;2023-07-29T07:48:04;99926.19;;;22.69;67.28
22440;BME280;11387;51.612;7.210;2023-07-29T07:50:33;99937.31;;;22.40;66.82
22440;BME280;11387;51.612;7.210;2023-07-29T07:53:01;99934.44;;;22.08;68.46
22440;BME280;11387;51.612;7.210;2023-07-29T07:55:30;99935.34;;;21.50;69.37
22440;BME280;11387;51.612;7.210;2023-07-29T07:57:59;99937.00;;;21.62;70.09
22440;BME280;11387;51.612;7.210;2023-07-29T08:00:27;99930.00;;;21.97;69.28
22440;BME280;11387;51.612;7.210;2023-07-29T08:02:56;99927.75;;;22.27;67.78
22440;BME280;11387;51.612;7.210;2023-07-29T08:05:26;99920.06;;;21.96;67.94
22440;BME280;11387;51.612;7.210;2023-07-29T08:07:54;99924.53;;;22.18;66.63
22440;BME280;11387;51.612;7.210;2023-07-29T08:10:23;99918.13;;;22.10;66.73
22440;BME280;11387;51.612;7.210;2023-07-29T08:12:52;99909.47;;;22.76;65.43
22440;BME280;11387;51.612;7.210;2023-07-29T08:15:20;99912.69;;;22.85;64.19
22440;BME280;11387;51.612;7.210;2023-07-29T08:17:49;99913.84;;;22.63;65.33
22440;BME280;11387;51.612;7.210;2023-07-29T08:20:17;99919.72;;;22.01;65.80
22440;BME280;11387;51.612;7.210;2023-07-29T08:22:47;99920.16;;;22.35;65.99
22440;BME280;11387;51.612;7.210;2023-07-29T08:25:16;99914.25;;;22.54;65.55
22440;BME280;11387;51.612;7.210;2023-07-29T08:27:44;99916.59;;;23.48;62.90
22440;BME280;11387;51.612;7.210;2023-07-29T08:30:13;99919.63;;;25.55;55.49
22440;BME280;11387;51.612;7.210;2023-07-29T08:32:43;99915.63;;;25.90;52.76
22440;BME280;11387;51.612;7.210;2023-07-29T08:35:12;99925.75;;;25.80;52.99
22440;BME280;11387;51.612;7.210;2023-07-29T08:37:41;99921.84;;;26.05;53.01
22440;BME280;11387;51.612;7.210;2023-07-29T08:40:12;99916.81;;;27.24;49.21
22440;BME280;11387;51.612;7.210;2023-07-29T08:42:41;99918.50;;;27.41;47.63
22440;BME280;11387;51.612;7.210;2023-07-29T08:45:13;99925.47;;;28.68;43.98
22440;BME280;11387;51.612;7.210;2023-07-29T08:47:42;99921.50;;;29.88;41.06
22440;BME280;11387;51.612;7.210;2023-07-29T08:50:11;99920.09;;;31.10;40.56
22440;BME280;11387;51.612;7.210;2023-07-29T08:52:42;99919.34;;;32.81;37.66
22440;BME280;11387;51.612;7.210;2023-07-29T08:55:13;99909.38;;;34.41;33.69
22440;BME280;11387;51.612;7.210;2023-07-29T08:57:42;99913.78;;;33.45;33.91
22440;BME280;11387;51.612;7.210;2023-07-29T09:00:11;99927.13;;;30.30;38.35
22440;BME280;11387;51.612;7.210;2023-07-29T09:02:41;99918.03;;;29.55;40.82
22440;BME280;11387;51.612;7.210;2023-07-29T09:05:10;99921.94;;;30.15;38.31
22440;BME280;11387;51.612;7.210;2023-07-29T09:07:39;99912.81;;;29.54;39.45
22440;BME280;11387;51.612;7.210;2023-07-29T09:10:09;99920.41;;;29.69;40.46
22440;BME280;11387;51.612;7.210;2023-07-29T09:12:40;99904.63;;;30.90;37.14
22440;BME280;11387;51.612;7.210;2023-07-29T09:15:09;99902.22;;;32.44;34.59
22440;BME280;11387;51.612;7.210;2023-07-29T09:18:09;99893.69;;;31.61;35.33
22440;BME280;11387;51.612;7.210;2023-07-29T09:20:38;99895.81;;;31.69;35.18
22440;BME280;11387;51.612;7.210;2023-07-29T09:23:08;99905.22;;;32.19;34.45
22440;BME280;11387;51.612;7.210;2023-07-29T09:26:00;99910.31;;;30.39;37.13
22440;BME280;11387;51.612;7.210;2023-07-29T09:28:34;99904.78;;;30.73;37.29
22440;BME280;11387;51.612;7.210;2023-07-29T09:31:03;99908.91;;;31.07;37.05
22440;BME280;11387;51.612;7.210;2023-07-29T09:33:45;99902.25;;;31.92;34.87
22440;BME280;11387;51.612;7.210;2023-07-29T09:36:14;99906.28;;;32.84;34.41
22440;BME280;11387;51.612;7.210;2023-07-29T09:38:44;99910.19;;;32.06;33.88
22440;BME280;11387;51.612;7.210;2023-07-29T09:41:12;99914.38;;;30.25;38.47
22440;BME280;11387;51.612;7.210;2023-07-29T09:43:43;99911.91;;;30.65;37.86
22440;BME280;11387;51.612;7.210;2023-07-29T09:46:11;99902.97;;;30.54;37.31
22440;BME280;11387;51.612;7.210;2023-07-29T09:48:40;99921.59;;;31.37;36.48
22440;BME280;11387;51.612;7.210;2023-07-29T09:51:24;99904.97;;;33.43;33.58
22440;BME280;11387;51.612;7.210;2023-07-29T09:53:53;99903.53;;;32.22;34.07
22440;BME280;11387;51.612;7.210;2023-07-29T09:56:24;99911.22;;;29.07;39.78
22440;BME280;11387;51.612;7.210;2023-07-29T09:59:04;99911.59;;;27.45;44.41
22440;BME280;11387;51.612;7.210;2023-07-29T10:01:33;99909.22;;;26.20;47.66
22440;BME280;11387;51.612;7.210;2023-07-29T10:04:04;99914.25;;;24.89;52.07
22440;BME280;11387;51.612;7.210;2023-07-29T10:06:37;99925.94;;;24.11;55.31
22440;BME280;11387;51.612;7.210;2023-07-29T10:09:07;99924.91;;;23.76;57.19
22440;BME280;11387;51.612;7.210;2023-07-29T10:11:37;99920.25;;;24.36;55.27
22440;BME280;11387;51.612;7.210;2023-07-29T10:14:08;99928.31;;;24.78;54.00
22440;BME280;11387;51.612;7.210;2023-07-29T10:16:37;99929.94;;;25.65;51.33
22440;BME280;11387;51.612;7.210;2023-07-29T10:19:09;99918.81;;;26.76;48.84
22440;BME280;11387;51.612;7.210;2023-07-29T10:21:39;99925.25;;;29.56;44.06
22440;BME280;11387;51.612;7.210;2023-07-29T10:24:13;99922.75;;;31.61;38.57
22440;BME280;11387;51.612;7.210;2023-07-29T10:26:46;99931.84;;;32.00;37.22
22440;BME280;11387;51.612;7.210;2023-07-29T10:29:19;99933.94;;;33.65;35.57
22440;BME280;11387;51.612;7.210;2023-07-29T10:31:52;99933.47;;;33.94;33.33
22440;BME280;11387;51.612;7.210;2023-07-29T10:34:21;99925.09;;;32.99;33.15
22440;BME280;11387;51.612;7.210;2023-07-29T10:36:51;99909.28;;;32.18;35.67
22440;BME280;11387;51.612;7.210;2023-07-29T10:39:20;99914.38;;;32.54;36.37
22440;BME280;11387;51.612;7.210;2023-07-29T10:42:05;99900.50;;;32.96;35.66
22440;BME280;11387;51.612;7.210;2023-07-29T10:44:50;99899.47;;;30.63;38.79
22440;BME280;11387;51.612;7.210;2023-07-29T10:47:21;99900.72;;;31.22;37.85
22440;BME280;11387;51.612;7.210;2023-07-29T10:50:17;99908.56;;;32.58;35.68
22440;BME280;11387;51.612;7.210;2023-07-29T10:52:49;99905.81;;;32.45;35.20
22440;BME280;11387;51.612;7.210;2023-07-29T10:55:29;99912.88;;;33.30;34.86
22440;BME280;11387;51.612;7.210;2023-07-29T10:58:15;99905.34;;;32.77;35.20
22440;BME280;11387;51.612;7.210;2023-07-29T11:00:46;99913.31;;;31.08;37.11
22440;BME280;11387;51.612;7.210;2023-07-29T11:03:15;99920.22;;;30.18;38.19
22440;BME280;11387;51.612;7.210;2023-07-29T11:05:47;99906.59;;;32.14;35.37
22440;BME280;11387;51.612;7.210;2023-07-29T11:08:17;99894.56;;;33.58;33.87
22440;BME280;11387;51.612;7.210;2023-07-29T11:10:58;99898.41;;;34.16;31.06
22440;BME280;11387;51.612;7.210;2023-07-29T11:13:27;99894.16;;;34.20;31.58
22440;BME280;11387;51.612;7.210;2023-07-29T11:15:58;99906.53;;;33.81;32.42
22440;BME280;11387;51.612;7.210;2023-07-29T11:18:28;99898.66;;;33.39;33.07
22440;BME280;11387;51.612;7.210;2023-07-29T11:20:58;99894.47;;;32.05;35.04
22440;BME280;11387;51.612;7.210;2023-07-29T11:23:29;99897.91;;;30.62;37.90
22440;BME280;11387;51.612;7.210;2023-07-29T11:25:59;99893.53;;;29.52;39.75
22440;BME280;11387;51.612;7.210;2023-07-29T11:44:21;99900.25;;;24.89;52.83
22440;BME280;11387;51.612;7.210;2023-07-29T11:46:50;99898.28;;;24.86;53.72
22440;BME280;11387;51.612;7.210;2023-07-29T11:49:19;99889.63;;;25.52;51.52
22440;BME280;11387;51.612;7.210;2023-07-29T14:33:16;100026.97;;;18.25;100.00
22440;BME280;11387;51.612;7.210;2023-07-29T14:35:45;100029.22;;;18.19;100.00
22440;BME280;11387;51.612;7.210;2023-07-29T14:38:13;100024.91;;;18.22;100.00
22440;BME280;11387;51.612;7.210;2023-07-29T14:42:05;100025.78;;;18.06;100.00
22440;BME280;11387;51.612;7.210;2023-07-29T14:44:37;100022.19;;;18.06;100.00
22440;BME280;11387;51.612;7.210;2023-07-29T14:47:07;100030.38;;;18.18;100.00
22440;BME280;11387;51.612;7.210;2023-07-29T14:49:35;100030.38;;;18.37;100.00
22440;BME280;11387;51.612;7.210;2023-07-29T14:52:07;100024.13;;;18.82;100.00
22440;BME280;11387;51.612;7.210;2023-07-29T14:54:36;100004.13;;;19.42;100.00
22440;BME280;11387;51.612;7.210;2023-07-29T14:57:06;100001.63;;;20.49;100.00
22440;BME280;11387;51.612;7.210;2023-07-29T14:59:35;100003.88;;;20.74;100.00
22440;BME280;11387;51.612;7.210;2023-07-29T15:02:04;100000.19;;;21.03;100.00
22440;BME280;11387;51.612;7.210;2023-07-29T15:04:33;99988.41;;;21.21;99.31
22440;BME280;11387;51.612;7.210;2023-07-29T15:07:02;99993.72;;;21.36;97.34
22440;BME280;11387;51.612;7.210;2023-07-29T15:09:31;99983.97;;;21.67;94.78
22440;BME280;11387;51.612;7.210;2023-07-29T15:12:00;99981.31;;;21.27;95.23
22440;BME280;11387;51.612;7.210;2023-07-29T15:14:30;99975.59;;;21.09;90.96
22440;BME280;11387;51.612;7.210;2023-07-29T15:16:58;99975.66;;;21.19;95.33
22440;BME280;11387;51.612;7.210;2023-07-29T15:19:33;99974.72;;;21.01;93.34
22440;BME280;11387;51.612;7.210;2023-07-29T15:22:05;99973.47;;;20.95;93.43
22440;BME280;11387;51.612;7.210;2023-07-29T15:24:33;99972.81;;;20.65;96.58
22440;BME280;11387;51.612;7.210;2023-07-29T15:27:03;99961.13;;;20.15;96.47
22440;BME280;11387;51.612;7.210;2023-07-29T15:29:32;99965.06;;;19.80;96.75
22440;BME280;11387;51.612;7.210;2023-07-29T15:32:01;99960.38;;;19.58;99.27
22440;BME280;11387;51.612;7.210;2023-07-29T15:34:30;99958.28;;;19.78;100.00
22440;BME280;11387;51.612;7.210;2023-07-29T15:36:59;99951.63;;;20.16;99.18
22440;BME280;11387;51.612;7.210;2023-07-29T15:39:28;99956.72;;;20.44;98.82
22440;BME280;11387;51.612;7.210;2023-07-29T15:41:58;99954.66;;;20.78;99.48
22440;BME280;11387;51.612;7.210;2023-07-29T15:44:27;99950.59;;;20.68;94.95
22440;BME280;11387;51.612;7.210;2023-07-29T15:46:57;99957.31;;;21.08;97.94
22440;BME280;11387;51.612;7.210;2023-07-29T15:49:26;99956.91;;;21.09;92.43
22440;BME280;11387;51.612;7.210;2023-07-29T15:52:15;99958.50;;;21.07;93.50
22440;BME280;11387;51.612;7.210;2023-07-29T15:54:44;99960.84;;;20.61;93.46
22440;BME280;11387;51.612;7.210;2023-07-29T15:57:13;99958.75;;;20.50;94.37
22440;BME280;11387;51.612;7.210;2023-07-29T15:59:41;99959.16;;;20.15;95.99
22440;BME280;11387;51.612;7.210;2023-07-29T16:02:12;99953.66;;;19.89;98.88
22440;BME280;11387;51.612;7.210;2023-07-29T16:04:40;99962.97;;;20.04;97.00
22440;BME280;11387;51.612;7.210;2023-07-29T16:07:09;99963.69;;;19.97;97.10
22440;BME280;11387;51.612;7.210;2023-07-29T16:09:38;99960.16;;;19.70;98.78